sensor_id;sensor_type;location;lat;lon;timestamp;temperature;humidity
58096;DHT22;43908;53.038;6.666;2022-08-27T00:00:05;15.70;99.90
58096;DHT22;43908;53.038;6.666;2022-08-27T00:02:33;15.70;99.90
58096;DHT22;43908;53.038;6.666;2022-08-27T00:05:00;15.70;99.90
58096;DHT22;43908;53.038;6.666;2022-08-27T00:07:26;15.70;99.90
58096;DHT22;43908;53.038;6.666;2022-08-27T00:09:52;15.70;99.90
58096;DHT22;43908;53.038;6.666;2022-08-27T00:12:17;15.70;99.90
58096;DHT22;43908;53.038;6.666;2022-08-27T00:14:43;15.60;99.90
58096;DHT22;43908;53.038;6.666;2022-08-27T00:17:08;15.60;99.90
58096;DHT22;43908;53.038;6.666;2022-08-27T00:19:34;15.70;99.90
58096;DHT22;43908;53.038;6.666;2022-08-27T00:22:01;15.70;99.90
58096;DHT22;43908;53.038;6.666;2022-08-27T00:24:26;15.70;99.90
58096;DHT22;43908;53.038;6.666;2022-08-27T00:26:52;15.70;99.90
58096;DHT22;43908;53.038;6.666;2022-08-27T00:29:18;15.70;99.90
58096;DHT22;43908;53.038;6.666;2022-08-27T00:31:44;15.80;99.90
58096;DHT22;43908;53.038;6.666;2022-08-27T00:34:09;15.80;99.90
58096;DHT22;43908;53.038;6.666;2022-08-27T00:36:35;15.80;99.90
58096;DHT22;43908;53.038;6.666;2022-08-27T00:39:01;15.80;99.90
58096;DHT22;43908;53.038;6.666;2022-08-27T00:41:27;15.90;99.90
58096;DHT22;43908;53.038;6.666;2022-08-27T00:48:50;15.90;99.90
58096;DHT22;43908;53.038;6.666;2022-08-27T00:51:16;15.90;99.90
58096;DHT22;43908;53.038;6.666;2022-08-27T00:53:42;16.00;99.90
58096;DHT22;43908;53.038;6.666;2022-08-27T00:56:09;16.00;99.90
58096;DHT22;43908;53.038;6.666;2022-08-27T00:58:36;16.00;99.90
58096;DHT22;43908;53.038;6.666;2022-08-27T01:01:03;16.00;99.90
58096;DHT22;43908;53.038;6.666;2022-08-27T01:03:29;16.00;99.90
58096;DHT22;43908;53.038;6.666;2022-08-27T01:05:55;16.00;99.90
58096;DHT22;43908;53.038;6.666;2022-08-27T01:08:22;16.00;99.90
58096;DHT22;43908;53.038;6.666;2022-08-27T01:10:48;16.00;99.90
58096;DHT22;43908;53.038;6.666;2022-08-27T01:13:16;16.00;99.90
58096;DHT22;43908;53.038;6.666;2022-08-27T01:15:41;16.00;99.90
58096;DHT22;43908;53.038;6.666;2022-08-27T01:18:07;15.90;99.90
58096;DHT22;43908;53.038;6.666;2022-08-27T01:20:40;15.90;99.90
58096;DHT22;43908;53.038;6.666;2022-08-27T01:25:42;15.80;99.90
58096;DHT22;43908;53.038;6.666;2022-08-27T01:28:08;15.70;99.90
58096;DHT22;43908;53.038;6.666;2022-08-27T01:30:34;15.70;99.90
58096;DHT22;43908;53.038;6.666;2022-08-27T01:33:06;15.60;99.90
58096;DHT22;43908;53.038;6.666;2022-08-27T01:35:32;15.60;99.90
58096;DHT22;43908;53.038;6.666;2022-08-27T01:37:58;15.60;99.90
58096;DHT22;43908;53.038;6.666;2022-08-27T01:40:24;15.50;99.90
58096;DHT22;43908;53.038;6.666;2022-08-27T01:42:50;15.50;99.90
58096;DHT22;43908;53.038;6.666;2022-08-27T01:45:18;15.40;99.90
58096;DHT22;43908;53.038;6.666;2022-08-27T01:47:43;15.40;99.90
58096;DHT22;43908;53.038;6.666;2022-08-27T01:50:11;15.30;99.90
58096;DHT22;43908;53.038;6.666;2022-08-27T01:52:37;15.30;99.90
58096;DHT22;43908;53.038;6.666;2022-08-27T01:55:03;15.30;99.90
58096;DHT22;43908;53.038;6.666;2022-08-27T01:57:29;15.30;99.90
58096;DHT22;43908;53.038;6.666;2022-08-27T01:59:56;15.20;99.90
58096;DHT22;43908;53.038;6.666;2022-08-27T02:02:22;15.20;99.90
58096;DHT22;43908;53.038;6.666;2022-08-27T02:04:47;15.30;99.90
58096;DHT22;43908;53.038;6.666;2022-08-27T02:07:15;15.20;99.90
58096;DHT22;43908;53.038;6.666;2022-08-27T02:09:40;15.30;99.90
58096;DHT22;43908;53.038;6.666;2022-08-27T02:12:06;15.30;99.90
58096;DHT22;43908;53.038;6.666;2022-08-27T02:14:31;15.30;99.90
58096;DHT22;43908;53.038;6.666;2022-08-27T02:16:57;15.30;99.90
58096;DHT22;43908;53.038;6.666;2022-08-27T02:19:22;15.30;99.90
58096;DHT22;43908;53.038;6.666;2022-08-27T02:21:48;15.20;99.90
58096;DHT22;43908;53.038;6.666;2022-08-27T02:24:14;15.20;99.90
58096;DHT22;43908;53.038;6.666;2022-08-27T02:26:40;15.20;99.90
58096;DHT22;43908;53.038;6.666;2022-08-27T02:29:05;15.10;99.90
58096;DHT22;43908;53.038;6.666;2022-08-27T02:31:31;15.10;99.90
58096;DHT22;43908;53.038;6.666;2022-08-27T02:33:56;15.10;99.90
58096;DHT22;43908;53.038;6.666;2022-08-27T02:36:22;15.10;99.90
58096;DHT22;43908;53.038;6.666;2022-08-27T02:38:48;15.00;99.90
58096;DHT22;43908;53.038;6.666;2022-08-27T02:41:14;15.00;99.90
58096;DHT22;43908;53.038;6.666;2022-08-27T02:43:41;15.00;99.90
58096;DHT22;43908;53.038;6.666;2022-08-27T02:46:06;15.00;99.90
58096;DHT22;43908;53.038;6.666;2022-08-27T02:48:34;15.00;99.90
58096;DHT22;43908;53.038;6.666;2022-08-27T02:51:00;15.00;99.90
58096;DHT22;43908;53.038;6.666;2022-08-27T02:53:25;15.00;99.90
58096;DHT22;43908;53.038;6.666;2022-08-27T02:55:52;14.90;99.90
58096;DHT22;43908;53.038;6.666;2022-08-27T02:58:18;15.00;99.90
58096;DHT22;43908;53.038;6.666;2022-08-27T03:00:43;14.90;99.90
58096;DHT22;43908;53.038;6.666;2022-08-27T03:03:09;14.90;99.90
58096;DHT22;43908;53.038;6.666;2022-08-27T03:05:35;14.90;99.90
58096;DHT22;43908;53.038;6.666;2022-08-27T03:08:01;15.00;99.90
58096;DHT22;43908;53.038;6.666;2022-08-27T03:10:27;15.00;99.90
58096;DHT22;43908;53.038;6.666;2022-08-27T03:12:53;15.10;99.90
58096;DHT22;43908;53.038;6.666;2022-08-27T03:15:18;15.10;99.90
58096;DHT22;43908;53.038;6.666;2022-08-27T03:17:44;15.20;99.90
58096;DHT22;43908;53.038;6.666;2022-08-27T03:20:28;15.20;99.90
58096;DHT22;43908;53.038;6.666;2022-08-27T03:22:54;15.20;99.90
58096;DHT22;43908;53.038;6.666;2022-08-27T03:25:19;15.20;99.90
58096;DHT22;43908;53.038;6.666;2022-08-27T03:27:45;15.20;99.90
58096;DHT22;43908;53.038;6.666;2022-08-27T03:30:12;15.30;99.90
58096;DHT22;43908;53.038;6.666;2022-08-27T03:32:39;15.30;99.90
58096;DHT22;43908;53.038;6.666;2022-08-27T03:35:04;15.30;99.90
58096;DHT22;43908;53.038;6.666;2022-08-27T03:37:30;15.30;99.90
58096;DHT22;43908;53.038;6.666;2022-08-27T03:39:56;15.40;99.90
58096;DHT22;43908;53.038;6.666;2022-08-27T03:42:22;15.40;99.90
58096;DHT22;43908;53.038;6.666;2022-08-27T03:44:47;15.40;99.90
58096;DHT22;43908;53.038;6.666;2022-08-27T03:47:13;15.40;99.90
58096;DHT22;43908;53.038;6.666;2022-08-27T03:49:39;15.40;99.90
58096;DHT22;43908;53.038;6.666;2022-08-27T03:52:05;15.40;99.90
58096;DHT22;43908;53.038;6.666;2022-08-27T03:54:32;15.40;99.90
58096;DHT22;43908;53.038;6.666;2022-08-27T03:56:58;15.40;99.90
58096;DHT22;43908;53.038;6.666;2022-08-27T03:59:23;15.40;99.90
58096;DHT22;43908;53.038;6.666;2022-08-27T04:01:49;15.30;99.90
58096;DHT22;43908;53.038;6.666;2022-08-27T04:04:14;15.30;99.90
58096;DHT22;43908;53.038;6.666;2022-08-27T04:06:40;15.30;99.90
58096;DHT22;43908;53.038;6.666;2022-08-27T04:09:05;15.30;99.90
58096;DHT22;43908;53.038;6.666;2022-08-27T04:11:32;15.30;99.90
58096;DHT22;43908;53.038;6.666;2022-08-27T04:13:58;15.30;99.90
58096;DHT22;43908;53.038;6.666;2022-08-27T04:16:24;15.30;99.90
58096;DHT22;43908;53.038;6.666;2022-08-27T04:18:51;15.30;99.90
58096;DHT22;43908;53.038;6.666;2022-08-27T04:21:17;15.30;99.90
58096;DHT22;43908;53.038;6.666;2022-08-27T04:23:42;15.30;99.90
58096;DHT22;43908;53.038;6.666;2022-08-27T04:26:09;15.30;99.90
58096;DHT22;43908;53.038;6.666;2022-08-27T04:28:35;15.20;99.90
58096;DHT22;43908;53.038;6.666;2022-08-27T04:31:01;15.20;99.90
58096;DHT22;43908;53.038;6.666;2022-08-27T04:33:27;15.20;99.90
58096;DHT22;43908;53.038;6.666;2022-08-27T04:35:56;15.20;99.90
58096;DHT22;43908;53.038;6.666;2022-08-27T04:38:21;15.20;99.90
58096;DHT22;43908;53.038;6.666;2022-08-27T04:40:47;15.20;99.90
58096;DHT22;43908;53.038;6.666;2022-08-27T04:43:31;15.10;99.90
58096;DHT22;43908;53.038;6.666;2022-08-27T04:45:57;15.10;99.90
58096;DHT22;43908;53.038;6.666;2022-08-27T04:48:23;15.10;99.90
58096;DHT22;43908;53.038;6.666;2022-08-27T04:50:49;15.00;99.90
58096;DHT22;43908;53.038;6.666;2022-08-27T04:53:15;14.90;99.90
58096;DHT22;43908;53.038;6.666;2022-08-27T04:55:42;14.90;99.90
58096;DHT22;43908;53.038;6.666;2022-08-27T04:58:07;14.80;99.90
58096;DHT22;43908;53.038;6.666;2022-08-27T05:00:33;14.80;99.90
58096;DHT22;43908;53.038;6.666;2022-08-27T05:02:58;14.80;99.90
58096;DHT22;43908;53.038;6.666;2022-08-27T05:05:25;14.70;99.90
58096;DHT22;43908;53.038;6.666;2022-08-27T05:07:51;14.70;99.90
58096;DHT22;43908;53.038;6.666;2022-08-27T05:10:16;14.70;99.90
58096;DHT22;43908;53.038;6.666;2022-08-27T05:12:42;14.70;99.90
58096;DHT22;43908;53.038;6.666;2022-08-27T05:15:07;14.70;99.90
58096;DHT22;43908;53.038;6.666;2022-08-27T05:17:33;14.70;99.90
58096;DHT22;43908;53.038;6.666;2022-08-27T05:19:59;14.70;99.90
58096;DHT22;43908;53.038;6.666;2022-08-27T05:22:24;14.70;99.90
58096;DHT22;43908;53.038;6.666;2022-08-27T05:24:51;14.70;99.90
58096;DHT22;43908;53.038;6.666;2022-08-27T05:27:17;14.70;99.90
58096;DHT22;43908;53.038;6.666;2022-08-27T05:29:42;14.80;99.90
58096;DHT22;43908;53.038;6.666;2022-08-27T05:32:08;14.80;99.90
58096;DHT22;43908;53.038;6.666;2022-08-27T05:34:33;14.80;99.90
58096;DHT22;43908;53.038;6.666;2022-08-27T05:36:59;14.90;99.90
58096;DHT22;43908;53.038;6.666;2022-08-27T05:39:25;14.90;99.90
58096;DHT22;43908;53.038;6.666;2022-08-27T05:41:54;15.10;99.90
58096;DHT22;43908;53.038;6.666;2022-08-27T05:44:20;15.30;99.90
58096;DHT22;43908;53.038;6.666;2022-08-27T05:46:45;15.50;99.90
58096;DHT22;43908;53.038;6.666;2022-08-27T05:49:11;16.30;99.90
58096;DHT22;43908;53.038;6.666;2022-08-27T05:51:36;17.70;99.90
58096;DHT22;43908;53.038;6.666;2022-08-27T05:54:04;18.80;99.90
58096;DHT22;43908;53.038;6.666;2022-08-27T05:56:31;19.40;99.90
58096;DHT22;43908;53.038;6.666;2022-08-27T05:58:57;19.90;99.90
58096;DHT22;43908;53.038;6.666;2022-08-27T06:01:45;20.10;99.90
58096;DHT22;43908;53.038;6.666;2022-08-27T06:04:11;21.60;99.90
58096;DHT22;43908;53.038;6.666;2022-08-27T06:06:38;22.00;99.90
58096;DHT22;43908;53.038;6.666;2022-08-27T06:09:03;22.90;99.90
58096;DHT22;43908;53.038;6.666;2022-08-27T06:11:29;23.40;99.00
58096;DHT22;43908;53.038;6.666;2022-08-27T06:13:55;23.90;94.40
58096;DHT22;43908;53.038;6.666;2022-08-27T06:16:20;23.80;94.70
58096;DHT22;43908;53.038;6.666;2022-08-27T06:18:46;24.60;93.40
58096;DHT22;43908;53.038;6.666;2022-08-27T06:21:13;25.60;94.60
58096;DHT22;43908;53.038;6.666;2022-08-27T06:23:39;26.00;93.60
58096;DHT22;43908;53.038;6.666;2022-08-27T06:26:05;26.90;93.30
58096;DHT22;43908;53.038;6.666;2022-08-27T06:28:31;27.30;90.50
58096;DHT22;43908;53.038;6.666;2022-08-27T06:33:22;28.10;89.20
58096;DHT22;43908;53.038;6.666;2022-08-27T06:35:48;28.40;88.30
58096;DHT22;43908;53.038;6.666;2022-08-27T06:38:13;28.60;86.10
58096;DHT22;43908;53.038;6.666;2022-08-27T06:40:40;28.00;81.60
58096;DHT22;43908;53.038;6.666;2022-08-27T06:43:06;28.80;86.50
58096;DHT22;43908;53.038;6.666;2022-08-27T06:45:31;29.30;79.10
58096;DHT22;43908;53.038;6.666;2022-08-27T06:48:01;29.70;80.10
58096;DHT22;43908;53.038;6.666;2022-08-27T06:50:26;29.40;82.00
58096;DHT22;43908;53.038;6.666;2022-08-27T06:52:52;28.70;78.50
58096;DHT22;43908;53.038;6.666;2022-08-27T06:55:17;27.60;80.10
58096;DHT22;43908;53.038;6.666;2022-08-27T06:57:43;26.20;84.20
58096;DHT22;43908;53.038;6.666;2022-08-27T07:00:08;24.90;86.60
58096;DHT22;43908;53.038;6.666;2022-08-27T07:02:34;24.40;89.30
58096;DHT22;43908;53.038;6.666;2022-08-27T07:04:59;23.90;90.90
58096;DHT22;43908;53.038;6.666;2022-08-27T07:07:25;23.40;91.60
58096;DHT22;43908;53.038;6.666;2022-08-27T07:09:51;22.80;92.10
58096;DHT22;43908;53.038;6.666;2022-08-27T07:12:17;22.30;92.50
58096;DHT22;43908;53.038;6.666;2022-08-27T07:14:42;22.20;93.60
58096;DHT22;43908;53.038;6.666;2022-08-27T07:17:08;21.80;94.50
58096;DHT22;43908;53.038;6.666;2022-08-27T07:22:02;21.50;95.10
58096;DHT22;43908;53.038;6.666;2022-08-27T07:24:28;21.50;96.60
58096;DHT22;43908;53.038;6.666;2022-08-27T07:26:54;21.50;96.00
58096;DHT22;43908;53.038;6.666;2022-08-27T07:29:19;21.50;96.30
58096;DHT22;43908;53.038;6.666;2022-08-27T07:31:45;21.60;95.90
58096;DHT22;43908;53.038;6.666;2022-08-27T07:34:11;22.10;96.30
58096;DHT22;43908;53.038;6.666;2022-08-27T07:36:36;22.60;94.10
58096;DHT22;43908;53.038;6.666;2022-08-27T07:39:03;23.10;94.70
58096;DHT22;43908;53.038;6.666;2022-08-27T07:41:29;23.00;94.10
58096;DHT22;43908;53.038;6.666;2022-08-27T07:43:55;23.00;94.00
58096;DHT22;43908;53.038;6.666;2022-08-27T07:46:39;23.10;94.00
58096;DHT22;43908;53.038;6.666;2022-08-27T07:49:04;22.70;94.70
58096;DHT22;43908;53.038;6.666;2022-08-27T07:51:30;22.90;94.40
58096;DHT22;43908;53.038;6.666;2022-08-27T07:53:56;22.90;94.10
58096;DHT22;43908;53.038;6.666;2022-08-27T07:56:22;22.50;93.90
58096;DHT22;43908;53.038;6.666;2022-08-27T07:58:48;22.60;94.30
58096;DHT22;43908;53.038;6.666;2022-08-27T08:01:13;22.50;94.80
58096;DHT22;43908;53.038;6.666;2022-08-27T08:03:39;21.90;95.20
58096;DHT22;43908;53.038;6.666;2022-08-27T08:06:09;22.10;96.20
58096;DHT22;43908;53.038;6.666;2022-08-27T08:08:35;21.60;95.90
58096;DHT22;43908;53.038;6.666;2022-08-27T08:11:01;21.80;96.20
58096;DHT22;43908;53.038;6.666;2022-08-27T08:13:28;21.50;96.40
58096;DHT22;43908;53.038;6.666;2022-08-27T08:15:55;21.30;97.50
58096;DHT22;43908;53.038;6.666;2022-08-27T08:18:20;21.40;96.80
58096;DHT22;43908;53.038;6.666;2022-08-27T08:20:46;21.30;97.00
58096;DHT22;43908;53.038;6.666;2022-08-27T08:23:12;21.40;97.10
58096;DHT22;43908;53.038;6.666;2022-08-27T08:25:37;21.30;96.20
58096;DHT22;43908;53.038;6.666;2022-08-27T08:28:03;21.30;96.30
58096;DHT22;43908;53.038;6.666;2022-08-27T08:30:28;21.10;94.80
58096;DHT22;43908;53.038;6.666;2022-08-27T08:32:54;21.10;94.70
58096;DHT22;43908;53.038;6.666;2022-08-27T08:35:19;21.10;94.70
58096;DHT22;43908;53.038;6.666;2022-08-27T08:37:45;21.20;93.10
58096;DHT22;43908;53.038;6.666;2022-08-27T08:40:18;21.20;93.50
58096;DHT22;43908;53.038;6.666;2022-08-27T08:42:50;21.70;94.00
58096;DHT22;43908;53.038;6.666;2022-08-27T08:45:17;21.70;92.70
58096;DHT22;43908;53.038;6.666;2022-08-27T08:47:45;21.70;93.10
58096;DHT22;43908;53.038;6.666;2022-08-27T08:50:15;21.90;92.00
58096;DHT22;43908;53.038;6.666;2022-08-27T08:52:44;21.90;92.70
58096;DHT22;43908;53.038;6.666;2022-08-27T08:55:14;22.20;93.60
58096;DHT22;43908;53.038;6.666;2022-08-27T08:57:46;22.60;93.60
58096;DHT22;43908;53.038;6.666;2022-08-27T09:00:13;22.70;92.70
58096;DHT22;43908;53.038;6.666;2022-08-27T09:02:39;22.60;92.60
58096;DHT22;43908;53.038;6.666;2022-08-27T09:05:06;22.50;93.20
58096;DHT22;43908;53.038;6.666;2022-08-27T09:07:34;22.30;93.20
58096;DHT22;43908;53.038;6.666;2022-08-27T09:10:13;22.00;93.60
58096;DHT22;43908;53.038;6.666;2022-08-27T09:12:40;22.00;93.70
58096;DHT22;43908;53.038;6.666;2022-08-27T09:15:15;22.10;93.70
58096;DHT22;43908;53.038;6.666;2022-08-27T09:17:43;22.20;93.80
58096;DHT22;43908;53.038;6.666;2022-08-27T09:20:10;22.40;92.80
58096;DHT22;43908;53.038;6.666;2022-08-27T09:22:48;22.50;92.60
58096;DHT22;43908;53.038;6.666;2022-08-27T09:25:23;22.40;93.00
58096;DHT22;43908;53.038;6.666;2022-08-27T09:27:50;22.00;93.00
58096;DHT22;43908;53.038;6.666;2022-08-27T09:30:22;22.30;93.40
58096;DHT22;43908;53.038;6.666;2022-08-27T09:32:52;22.40;93.10
58096;DHT22;43908;53.038;6.666;2022-08-27T09:35:19;22.10;92.50
58096;DHT22;43908;53.038;6.666;2022-08-27T09:37:45;22.20;93.50
58096;DHT22;43908;53.038;6.666;2022-08-27T09:40:16;22.40;93.50
58096;DHT22;43908;53.038;6.666;2022-08-27T09:42:47;22.20;93.40
58096;DHT22;43908;53.038;6.666;2022-08-27T09:45:15;22.60;93.50
58096;DHT22;43908;53.038;6.666;2022-08-27T09:47:42;22.50;92.70
58096;DHT22;43908;53.038;6.666;2022-08-27T09:50:08;22.30;91.10
58096;DHT22;43908;53.038;6.666;2022-08-27T09:52:48;22.00;91.40
58096;DHT22;43908;53.038;6.666;2022-08-27T09:57:59;22.10;92.40
58096;DHT22;43908;53.038;6.666;2022-08-27T10:00:32;22.20;92.60
58096;DHT22;43908;53.038;6.666;2022-08-27T10:02:59;21.90;92.20
58096;DHT22;43908;53.038;6.666;2022-08-27T10:05:27;22.20;93.10
58096;DHT22;43908;53.038;6.666;2022-08-27T10:07:56;22.40;93.00
58096;DHT22;43908;53.038;6.666;2022-08-27T10:10:38;22.50;93.20
58096;DHT22;43908;53.038;6.666;2022-08-27T10:13:07;22.60;92.50
58096;DHT22;43908;53.038;6.666;2022-08-27T10:15:36;22.60;92.90
58096;DHT22;43908;53.038;6.666;2022-08-27T10:23:35;22.30;93.10
58096;DHT22;43908;53.038;6.666;2022-08-27T10:26:11;22.40;92.90
58096;DHT22;43908;53.038;6.666;2022-08-27T10:28:53;22.50;92.40
58096;DHT22;43908;53.038;6.666;2022-08-27T10:39:13;22.40;91.80
58096;DHT22;43908;53.038;6.666;2022-08-27T10:41:44;22.60;92.50
58096;DHT22;43908;53.038;6.666;2022-08-27T10:47:11;22.60;92.70
58096;DHT22;43908;53.038;6.666;2022-08-27T10:52:20;22.90;92.00
58096;DHT22;43908;53.038;6.666;2022-08-27T10:55:00;23.00;91.90
58096;DHT22;43908;53.038;6.666;2022-08-27T11:00:02;22.90;92.10
58096;DHT22;43908;53.038;6.666;2022-08-27T11:02:51;22.70;91.80
58096;DHT22;43908;53.038;6.666;2022-08-27T11:05:19;22.70;91.90
58096;DHT22;43908;53.038;6.666;2022-08-27T11:07:48;22.80;92.50
58096;DHT22;43908;53.038;6.666;2022-08-27T11:13:03;22.40;92.00
58096;DHT22;43908;53.038;6.666;2022-08-27T11:15:30;22.50;92.20
58096;DHT22;43908;53.038;6.666;2022-08-27T11:18:02;22.60;91.70
58096;DHT22;43908;53.038;6.666;2022-08-27T11:20:31;22.70;92.00
58096;DHT22;43908;53.038;6.666;2022-08-27T11:23:00;22.60;91.30
58096;DHT22;43908;53.038;6.666;2022-08-27T11:28:15;22.60;91.90
58096;DHT22;43908;53.038;6.666;2022-08-27T11:30:45;22.60;90.50
58096;DHT22;43908;53.038;6.666;2022-08-27T11:33:37;22.40;89.80
58096;DHT22;43908;53.038;6.666;2022-08-27T11:36:13;22.50;91.30
58096;DHT22;43908;53.038;6.666;2022-08-27T11:43:49;22.60;92.00
58096;DHT22;43908;53.038;6.666;2022-08-27T11:46:25;22.60;92.50
58096;DHT22;43908;53.038;6.666;2022-08-27T11:48:58;22.70;91.70
58096;DHT22;43908;53.038;6.666;2022-08-27T11:51:35;22.50;91.70
58096;DHT22;43908;53.038;6.666;2022-08-27T11:54:20;22.90;91.60
58096;DHT22;43908;53.038;6.666;2022-08-27T11:56:47;23.00;91.10
58096;DHT22;43908;53.038;6.666;2022-08-27T12:01:45;23.00;91.00
58096;DHT22;43908;53.038;6.666;2022-08-27T12:07:03;23.00;91.40
58096;DHT22;43908;53.038;6.666;2022-08-27T12:09:39;23.10;89.90
58096;DHT22;43908;53.038;6.666;2022-08-27T12:12:09;22.60;89.50
58096;DHT22;43908;53.038;6.666;2022-08-27T12:14:44;22.50;90.80
58096;DHT22;43908;53.038;6.666;2022-08-27T12:17:33;22.30;90.60
58096;DHT22;43908;53.038;6.666;2022-08-27T12:20:10;22.40;90.60
58096;DHT22;43908;53.038;6.666;2022-08-27T12:25:38;22.60;90.30
58096;DHT22;43908;53.038;6.666;2022-08-27T12:28:04;23.00;90.40
58096;DHT22;43908;53.038;6.666;2022-08-27T12:30:32;22.70;88.60
58096;DHT22;43908;53.038;6.666;2022-08-27T12:33:03;22.50;90.40
58096;DHT22;43908;53.038;6.666;2022-08-27T12:35:48;22.50;90.00
58096;DHT22;43908;53.038;6.666;2022-08-27T12:46:04;22.70;90.60
58096;DHT22;43908;53.038;6.666;2022-08-27T12:48:37;23.00;91.30
58096;DHT22;43908;53.038;6.666;2022-08-27T12:51:06;23.50;90.60
58096;DHT22;43908;53.038;6.666;2022-08-27T12:53:39;22.90;87.60
58096;DHT22;43908;53.038;6.666;2022-08-27T12:59:20;22.00;90.10
58096;DHT22;43908;53.038;6.666;2022-08-27T13:04:29;22.10;91.00
58096;DHT22;43908;53.038;6.666;2022-08-27T13:06:55;22.50;91.40
58096;DHT22;43908;53.038;6.666;2022-08-27T13:09:26;22.80;91.00
58096;DHT22;43908;53.038;6.666;2022-08-27T13:11:52;23.10;90.30
58096;DHT22;43908;53.038;6.666;2022-08-27T13:14:21;23.40;88.40
58096;DHT22;43908;53.038;6.666;2022-08-27T13:16:51;23.50;87.90
58096;DHT22;43908;53.038;6.666;2022-08-27T13:19:31;23.70;88.90
58096;DHT22;43908;53.038;6.666;2022-08-27T13:21:57;22.90;88.70
58096;DHT22;43908;53.038;6.666;2022-08-27T13:24:36;23.00;90.90
58096;DHT22;43908;53.038;6.666;2022-08-27T13:27:08;23.00;89.50
58096;DHT22;43908;53.038;6.666;2022-08-27T13:29:34;23.10;88.40
58096;DHT22;43908;53.038;6.666;2022-08-27T13:31:59;23.40;90.60
58096;DHT22;43908;53.038;6.666;2022-08-27T13:34:26;23.50;86.80
58096;DHT22;43908;53.038;6.666;2022-08-27T13:36:53;23.20;89.20
58096;DHT22;43908;53.038;6.666;2022-08-27T13:39:19;23.00;90.20
58096;DHT22;43908;53.038;6.666;2022-08-27T13:41:45;23.00;89.70
58096;DHT22;43908;53.038;6.666;2022-08-27T13:46:48;23.30;88.80
58096;DHT22;43908;53.038;6.666;2022-08-27T13:49:16;23.70;87.30
58096;DHT22;43908;53.038;6.666;2022-08-27T13:51:42;23.80;86.50
58096;DHT22;43908;53.038;6.666;2022-08-27T13:54:10;23.70;86.00
58096;DHT22;43908;53.038;6.666;2022-08-27T14:04:25;22.70;88.20
58096;DHT22;43908;53.038;6.666;2022-08-27T14:06:51;23.00;88.50
58096;DHT22;43908;53.038;6.666;2022-08-27T14:11:57;23.10;87.80
58096;DHT22;43908;53.038;6.666;2022-08-27T14:14:22;23.40;89.30
58096;DHT22;43908;53.038;6.666;2022-08-27T14:16:54;23.50;87.30
58096;DHT22;43908;53.038;6.666;2022-08-27T14:19:25;22.90;86.50
58096;DHT22;43908;53.038;6.666;2022-08-27T14:21:51;22.80;88.50
58096;DHT22;43908;53.038;6.666;2022-08-27T14:24:16;22.50;90.00
58096;DHT22;43908;53.038;6.666;2022-08-27T14:26:42;22.40;89.90
58096;DHT22;43908;53.038;6.666;2022-08-27T14:29:07;22.50;90.60
58096;DHT22;43908;53.038;6.666;2022-08-27T14:31:33;22.50;90.60
58096;DHT22;43908;53.038;6.666;2022-08-27T14:33:58;22.60;90.60
58096;DHT22;43908;53.038;6.666;2022-08-27T14:36:25;22.90;91.50
58096;DHT22;43908;53.038;6.666;2022-08-27T14:38:51;23.20;90.00
58096;DHT22;43908;53.038;6.666;2022-08-27T14:41:17;23.30;87.80
58096;DHT22;43908;53.038;6.666;2022-08-27T14:43:43;23.20;88.30
58096;DHT22;43908;53.038;6.666;2022-08-27T14:46:12;23.00;86.50
58096;DHT22;43908;53.038;6.666;2022-08-27T14:48:37;22.80;89.00
58096;DHT22;43908;53.038;6.666;2022-08-27T14:51:08;22.70;87.20
58096;DHT22;43908;53.038;6.666;2022-08-27T14:53:36;22.50;88.00
58096;DHT22;43908;53.038;6.666;2022-08-27T14:56:02;22.60;88.80
58096;DHT22;43908;53.038;6.666;2022-08-27T14:58:27;22.50;90.20
58096;DHT22;43908;53.038;6.666;2022-08-27T15:00:53;22.50;90.20
58096;DHT22;43908;53.038;6.666;2022-08-27T15:03:20;22.40;88.90
58096;DHT22;43908;53.038;6.666;2022-08-27T15:05:50;22.30;91.10
58096;DHT22;43908;53.038;6.666;2022-08-27T15:08:16;22.30;92.40
58096;DHT22;43908;53.038;6.666;2022-08-27T15:10:41;22.30;91.80
58096;DHT22;43908;53.038;6.666;2022-08-27T15:13:07;22.00;92.10
58096;DHT22;43908;53.038;6.666;2022-08-27T15:15:35;22.10;92.30
58096;DHT22;43908;53.038;6.666;2022-08-27T15:18:02;22.20;92.40
58096;DHT22;43908;53.038;6.666;2022-08-27T15:20:27;22.10;91.90
58096;DHT22;43908;53.038;6.666;2022-08-27T15:22:53;22.00;92.40
58096;DHT22;43908;53.038;6.666;2022-08-27T15:25:18;21.90;92.40
58096;DHT22;43908;53.038;6.666;2022-08-27T15:27:44;22.00;92.70
58096;DHT22;43908;53.038;6.666;2022-08-27T15:30:11;21.90;92.30
58096;DHT22;43908;53.038;6.666;2022-08-27T15:32:41;21.80;91.60
58096;DHT22;43908;53.038;6.666;2022-08-27T15:35:08;21.90;92.80
58096;DHT22;43908;53.038;6.666;2022-08-27T15:37:36;21.70;93.00
58096;DHT22;43908;53.038;6.666;2022-08-27T15:40:02;21.70;91.70
58096;DHT22;43908;53.038;6.666;2022-08-27T15:42:28;21.60;92.40
58096;DHT22;43908;53.038;6.666;2022-08-27T15:44:54;21.50;90.90
58096;DHT22;43908;53.038;6.666;2022-08-27T15:47:20;21.20;91.00
58096;DHT22;43908;53.038;6.666;2022-08-27T15:49:46;21.40;92.90
58096;DHT22;43908;53.038;6.666;2022-08-27T15:52:12;21.40;94.30
58096;DHT22;43908;53.038;6.666;2022-08-27T15:54:38;21.50;91.80
58096;DHT22;43908;53.038;6.666;2022-08-27T15:57:04;21.20;91.80
58096;DHT22;43908;53.038;6.666;2022-08-27T15:59:30;21.30;92.70
58096;DHT22;43908;53.038;6.666;2022-08-27T16:01:56;21.10;92.40
58096;DHT22;43908;53.038;6.666;2022-08-27T16:04:21;21.20;93.90
58096;DHT22;43908;53.038;6.666;2022-08-27T16:06:47;21.40;94.40
58096;DHT22;43908;53.038;6.666;2022-08-27T16:09:13;21.30;92.80
58096;DHT22;43908;53.038;6.666;2022-08-27T16:11:39;21.30;94.80
58096;DHT22;43908;53.038;6.666;2022-08-27T16:14:05;21.30;93.70
58096;DHT22;43908;53.038;6.666;2022-08-27T16:16:31;21.30;92.90
58096;DHT22;43908;53.038;6.666;2022-08-27T16:18:58;21.20;92.30
58096;DHT22;43908;53.038;6.666;2022-08-27T16:21:24;21.20;92.50
58096;DHT22;43908;53.038;6.666;2022-08-27T16:23:50;21.20;92.20
58096;DHT22;43908;53.038;6.666;2022-08-27T16:26:15;21.00;92.50
58096;DHT22;43908;53.038;6.666;2022-08-27T16:28:41;21.00;93.10
58096;DHT22;43908;53.038;6.666;2022-08-27T16:31:07;20.90;92.70
58096;DHT22;43908;53.038;6.666;2022-08-27T16:33:33;20.90;93.30
58096;DHT22;43908;53.038;6.666;2022-08-27T16:35:58;20.80;94.10
58096;DHT22;43908;53.038;6.666;2022-08-27T16:38:25;20.80;92.60
58096;DHT22;43908;53.038;6.666;2022-08-27T16:40:52;20.70;93.30
58096;DHT22;43908;53.038;6.666;2022-08-27T16:43:19;20.60;93.50
58096;DHT22;43908;53.038;6.666;2022-08-27T16:45:46;20.50;94.70
58096;DHT22;43908;53.038;6.666;2022-08-27T16:48:13;20.50;94.20
58096;DHT22;43908;53.038;6.666;2022-08-27T16:50:59;20.40;94.20
58096;DHT22;43908;53.038;6.666;2022-08-27T16:53:24;20.40;94.10